MA11 weather

Dog Fish Bar Heliport
Aquinnah, Massachusetts, United States

Public forecast

Using degrees Fahrenheit for public forecast. Weather courtesy of forecast.io.

METAR (pilot weather report)

Closest report is Martha's Vineyard Airport, 8.9 nm (16.5 km) ENE. Retrieved 2019/07/18 02:53 UTC (54 minutes ago):

KMVY 180253Z AUTO 21004KT 1/4SM R24/1200V1600FT FG VV002 23/22 A2991 RMK AO2 SLP128 T02280222 56000

TAF (pilot weather forecast)

Forecast is more than 12 hours old.

Closest forecast is Cape Cod Coast Guard Air Station, 22.3 nm (41.2 km) NE. Retrieved 2019/07/17 00:24 UTC (1 day ago):

TAF KFMH 172322Z 1800/1824 24008KT P6SM -SHRA VCTS OVC004CB FM180200 25006KT 4SM BR OVC004 FM181000 03003KT 2SM BR VCSH OVC010 FM181100 07003KT 3SM -SHRA BR OVC015 FM181700 10005KT 3SM -SHRA BR VCSH OVC008 FM182000 07005KT 3SM BR VCSH OVC008